• Join FlightAware (Why Join?)
  • Login
  • US Flag 
03:12AM EDT


 

Airport Tracker/Info


-or-


 

Live Flight TrackerFlight Track Log ✈ LOF3359 ✈ 06-Apr-2013 ✈ KSGF - KORD

Flight Track Log - Related Links

Times and Time Zones

All times are in EDT time to prevent confusion due to time zone crossing. See the LOF3359 flight status page for this flight to view local times or setup timezone preferences in your user account.

Time Position Orientation Groundspeed Altitude Reporting Facility
EDT Latitude Longitude Course Direction KTS MPH feet Rate Location/Type
05:17PM 37.2961 -93.2464 40° Northeast 238 274 5,000  Level Kansas City Center
05:18PM 37.3658 -93.1867 34° Northeast 278 320 7,500 2,220 Climbing Kansas City Center
05:19PM 37.4375 -93.1261 34° Northeast 297 342 9,600 1,680 Climbing Kansas City Center
05:20PM 37.6459 -92.9636 40° Northeast  Level Estimated
05:20PM 37.5122 -93.0597 35° Northeast 314 361 11,000  Level Kansas City Center
05:21PM 37.7258 -92.8781 40° Northeast  Level Estimated
05:21PM 37.6156 -92.9703 34° Northeast 352 405 12,900  Level Kansas City Center
05:22PM 37.8056 -92.7924 40° Northeast  Level Estimated
05:22PM 37.7028 -92.8939 35° Northeast 374 430 14,900  Level Kansas City Center
05:23PM 37.7869 -92.8203 35° Northeast 370 426 16,900 1,740 Climbing Kansas City Center
05:24PM 37.8711 -92.7461 35° Northeast 366 421 18,600 1,740 Climbing Kansas City Center
05:25PM 37.9631 -92.6656 35° Northeast 377 434 20,500 1,860 Climbing Kansas City Center
05:26PM 38.0500 -92.5892 35° Northeast 380 437 22,500 1,920 Climbing Kansas City Center
05:27PM 38.1353 -92.5144 35° Northeast 376 433 24,500 1,740 Climbing Kansas City Center
05:28PM 38.2178 -92.4414 35° Northeast 368 423 26,100 1,200 Climbing Kansas City Center
05:29PM 38.3000 -92.3678 35° Northeast 361 415 27,000 420 Climbing Kansas City Center
05:30PM 38.3919 -92.2847 35° Northeast 394 453 27,000  Level Kansas City Center
05:31PM 38.4883 -92.1967 36° Northeast 417 480 27,000  Level Kansas City Center
05:32PM 38.5853 -92.1100 35° Northeast 423 487 27,000  Level Kansas City Center
05:33PM 38.6836 -92.0217 35° Northeast 427 491 27,000  Level Kansas City Center
05:34PM 38.7997 -91.9169 35° Northeast 425 489 27,000  Level Kansas City Center
05:35PM 38.8956 -91.8300 35° Northeast 422 486 27,000  Level Kansas City Center
05:36PM 38.9917 -91.7425 35° Northeast 421 484 27,000  Level Kansas City Center
05:37PM 39.0822 -91.6594 35° Northeast 423 487 27,000  Level Kansas City Center
05:38PM 39.1786 -91.5722 35° Northeast 423 487 27,000  Level Kansas City Center
05:39PM 39.2769 -91.4828 35° Northeast 427 491 27,000  Level Kansas City Center
05:40PM 39.3803 -91.3861 36° Northeast 445 512 27,000  Level Kansas City Center
05:41PM 39.5075 -91.2686 35° Northeast 457 526 27,000  Level Kansas City Center
05:42PM 39.6142 -91.1692 36° Northeast 465 535 27,000  Level Kansas City Center
05:43PM 39.7228 -91.0678 36° Northeast 473 544 27,000  Level Kansas City Center
05:44PM 39.8200 -90.9683 38° Northeast 481 554 27,000  Level Kansas City Center
05:45PM 39.9275 -90.8608 37° Northeast 484 557 27,000  Level Kansas City Center
05:47PM 40.0592 -90.7281 38° Northeast 495 570 27,000  Level Kansas City Center
05:47PM 40.1267 -90.6589 38° Northeast 498 573 27,000  Level Chicago Center
05:48PM 40.2328 -90.5525 37° Northeast 491 565 27,000  Level Chicago Center
05:49PM 40.3622 -90.4203 38° Northeast 490 564 27,000  Level Chicago Center
05:50PM 40.4686 -90.3097 38° Northeast 488 562 27,000  Level Chicago Center
05:51PM 40.5725 -90.2031 38° Northeast 482 555 27,000  Level Chicago Center
05:52PM 40.6803 -90.0919 38° Northeast 489 563 27,000 -480 Level Chicago Center
05:53PM 40.7872 -89.9811 38° Northeast 486 559 26,100 -1,260 Descending Chicago Center
05:54PM 40.8864 -89.8778 38° Northeast 459 528 24,500 -1,080 Descending Chicago Center
05:55PM 41.0019 -89.7561 38° Northeast 444 511 24,000 -300 Descending Chicago Center
05:57PM 41.0881 -89.6644 39° Northeast 437 503 24,000  Level Chicago Center
05:58PM 41.1764 -89.5483 45° Northeast 450 518 24,000 -300 Level Chicago Center
05:59PM 41.2353 -89.4044 61° Northeast 445 512 23,500 -1,620 Descending Chicago Center
06:00PM 41.2914 -89.2658 62° Northeast 430 495 20,700 -2,940 Descending Chicago Center
06:01PM 41.3489 -89.1186 62° Northeast 425 489 17,500 -2,700 Descending Chicago Center
06:02PM 41.4019 -88.9861 62° Northeast 411 473 15,200 -2,400 Descending Chicago Center
06:03PM 41.4656 -88.8247 62° Northeast 413 475 12,600 -2,100 Descending Chicago Center
06:04PM 41.5189 -88.6922 62° Northeast 407 468 11,000 -840 Descending Chicago Center
06:05PM 41.5719 -88.5556 63° Northeast 414 476 10,900  Descending Chicago Center
06:06PM 41.6303 -88.4267 59° Northeast 405 466 11,000 -60 Climbing Chicago Center
06:07PM 41.6856 -88.3347 51° Northeast 316 364 10,800 -780 Descending Chicago Center
06:08PM 41.7314 -88.2561 52° Northeast 273 314 9,500 -1,260 Descending Chicago Center
06:09PM 41.7786 -88.1761 52° Northeast 275 316 8,200 -1,260 Descending Chicago Center
06:10PM 41.8317 -88.0844 52° Northeast 262 302 7,000 -600 Descending Chicago Center
06:11PM 41.8947 -88.0675 11° North 238 274 7,000  Level Chicago Center
06:12PM 41.9581 -88.0567 North 233 268 7,000  Level Chicago Center
06:13PM 42.0014 -88.0922 329° Northwest 193 222 7,000  Level Chicago Center
06:14PM 42.0414 -88.1306 325° Northwest 179 206 7,000  Level Chicago Center
06:15PM 42.0833 -88.1706 325° Northwest 183 211 7,000  Level Chicago Center
06:16PM 42.1258 -88.2144 323° Northwest 191 220 7,000  Level Chicago Center
06:17PM 42.1783 -88.2633 325° Northwest 192 221 7,000 -180 Level Chicago Center
06:18PM 42.2283 -88.2947 335° Northwest 207 238 6,700 -900 Descending Chicago Center
06:19PM 42.2414 -88.2197 77° East 224 258 5,200 -1,140 Descending Chicago Center
06:20PM 42.2083 -88.1800 138° Southeast 170 196 4,400 -600 Descending Chicago Center
06:21PM 42.1781 -88.1469 141° Southeast 146 168 4,000 -240 Descending Chicago Center
06:22PM 42.1464 -88.1108 140° Southeast 147 169 4,000 -180 Level Chicago Center
06:23PM 42.1089 -88.0686 140° Southeast 147 169 3,700 -480 Descending Chicago Center
06:24PM 42.1000 -88.0500 123° Southeast 158 182 3,300 -840 Descending Chicago TRACON
06:25PM 42.0667 -88.0167 143° Southeast 155 178 2,500 -780 Descending Chicago TRACON
06:26PM 42.0333 -87.9833 143° Southeast 127 146 1,800 -720 Descending Chicago TRACON
06:27PM 42.0000 -87.9500 143° Southeast 132 152 1,100 -720 Descending Chicago TRACON